createdAt,value
2022-09-28T00:02:01.708Z,25.20
2022-09-28T00:04:30.613Z,25.20
2022-09-28T00:06:59.450Z,25.30
2022-09-28T00:09:28.801Z,25.30
2022-09-28T00:11:58.643Z,25.20
2022-09-28T00:14:27.629Z,25.30
2022-09-28T00:16:56.542Z,25.30
2022-09-28T00:19:25.459Z,25.30
2022-09-28T00:21:54.321Z,25.30
2022-09-28T00:24:27.486Z,25.30
2022-09-28T00:26:59.572Z,25.30
2022-09-28T00:29:29.723Z,25.30
2022-09-28T00:32:04.179Z,25.30
2022-09-28T00:34:35.814Z,25.40
2022-09-28T00:37:06.871Z,25.40
2022-09-28T00:39:37.167Z,25.30
2022-09-28T00:42:12.680Z,25.30
2022-09-28T00:44:46.374Z,25.30
2022-09-28T00:47:23.699Z,25.30
2022-09-28T00:50:04.127Z,25.30
2022-09-28T00:52:59.064Z,25.30
2022-09-28T00:55:38.129Z,25.30
2022-09-28T00:58:12.622Z,25.20
2022-09-28T01:00:42.553Z,25.20
2022-09-28T01:03:12.421Z,25.20
2022-09-28T01:05:41.980Z,25.20
2022-09-28T01:08:12.604Z,25.20
2022-09-28T01:10:42.180Z,25.20
2022-09-28T01:13:12.498Z,25.10
2022-09-28T01:15:55.054Z,25.20
2022-09-28T01:18:42.910Z,25.20
2022-09-28T01:21:22.194Z,25.20
2022-09-28T01:24:04.478Z,25.20
2022-09-28T01:26:58.140Z,25.20
2022-09-28T01:29:47.071Z,25.20
2022-09-28T01:32:31.283Z,25.20
2022-09-28T01:35:04.358Z,25.20
2022-09-28T01:38:18.526Z,25.20
2022-09-28T01:40:49.200Z,25.20
2022-09-28T01:43:23.997Z,25.20
2022-09-28T01:49:12.521Z,25.20
2022-09-28T01:51:58.135Z,25.20
2022-09-28T01:54:51.582Z,25.20
2022-09-28T01:57:29.818Z,25.20
2022-09-28T02:00:11.781Z,25.20
2022-09-28T02:03:02.567Z,25.30
2022-09-28T02:05:38.494Z,25.20
2022-09-28T02:08:07.885Z,25.30
2022-09-28T02:10:54.853Z,25.30
2022-09-28T02:13:31.629Z,25.30
2022-09-28T02:16:24.512Z,25.30
2022-09-28T02:18:53.899Z,25.30
2022-09-28T02:21:50.509Z,25.30
2022-09-28T02:24:24.677Z,25.30
2022-09-28T02:26:56.593Z,25.30
2022-09-28T02:29:26.425Z,25.40
2022-09-28T02:31:55.455Z,25.40
2022-09-28T02:34:24.381Z,25.40
2022-09-28T02:36:53.385Z,25.40
2022-09-28T02:39:22.296Z,25.50
2022-09-28T02:42:17.790Z,25.50
2022-09-28T02:44:58.933Z,25.50
2022-09-28T02:47:55.464Z,25.50
2022-09-28T02:50:43.705Z,25.60
2022-09-28T02:53:41.369Z,25.60
2022-09-28T02:56:12.988Z,25.60
2022-09-28T02:58:54.283Z,25.60
2022-09-28T03:01:50.903Z,25.60
2022-09-28T03:04:53.801Z,25.70
2022-09-28T03:07:51.866Z,25.60
2022-09-28T03:10:36.272Z,25.60
2022-09-28T03:13:06.526Z,25.60
2022-09-28T03:15:37.359Z,25.60
2022-09-28T03:18:06.581Z,25.60
2022-09-28T03:20:35.561Z,25.60
2022-09-28T03:23:24.711Z,25.60
2022-09-28T03:25:56.865Z,25.60
2022-09-28T03:28:25.848Z,25.60
2022-09-28T03:30:55.230Z,25.60
2022-09-28T03:33:24.452Z,25.60
2022-09-28T03:35:54.051Z,25.60
2022-09-28T03:38:23.100Z,25.60
2022-09-28T03:41:02.398Z,25.60
2022-09-28T03:43:33.429Z,25.60
2022-09-28T03:46:03.604Z,25.60
2022-09-28T03:48:36.506Z,25.60
2022-09-28T03:51:10.246Z,25.60
2022-09-28T03:53:39.375Z,25.50
2022-09-28T03:56:12.942Z,25.50
2022-09-28T03:58:42.231Z,25.60
2022-09-28T04:01:17.367Z,25.50
2022-09-28T04:03:47.138Z,25.50
2022-09-28T04:06:16.319Z,25.50
2022-09-28T04:08:45.232Z,25.50
2022-09-28T04:11:14.186Z,25.50
2022-09-28T04:13:43.070Z,25.50
2022-09-28T04:16:13.080Z,25.50
2022-09-28T04:18:41.943Z,25.40
2022-09-28T04:21:13.981Z,25.40
2022-09-28T04:23:43.460Z,25.40
2022-09-28T04:26:22.234Z,25.40
2022-09-28T04:29:10.328Z,25.40
2022-09-28T04:31:41.912Z,25.40
2022-09-28T04:34:11.681Z,25.40
2022-09-28T04:36:40.587Z,25.50
2022-09-28T04:39:09.678Z,25.40
2022-09-28T04:41:38.620Z,25.50
2022-09-28T04:44:07.881Z,25.50
2022-09-28T04:46:37.012Z,25.50
2022-09-28T04:49:05.968Z,25.50
2022-09-28T04:51:35.212Z,25.60
2022-09-28T04:54:04.305Z,25.50
2022-09-28T05:20:01.825Z,25.90
2022-09-28T05:22:30.949Z,25.90
2022-09-28T05:25:01.426Z,25.90
2022-09-28T05:27:30.463Z,26.00
2022-09-28T05:29:59.353Z,26.00
2022-09-28T05:32:28.270Z,26.10
2022-09-28T05:34:57.292Z,26.10
2022-09-28T05:37:26.189Z,26.10
2022-09-28T05:39:55.128Z,26.20
2022-09-28T05:42:24.001Z,26.20
2022-09-28T05:44:52.884Z,26.20
2022-09-28T05:47:21.787Z,26.20
2022-09-28T05:49:50.708Z,26.20
2022-09-28T05:52:20.534Z,26.20
2022-09-28T05:54:49.558Z,26.30
2022-09-28T05:57:18.522Z,26.30
2022-09-28T05:59:47.466Z,26.30
2022-09-28T06:02:16.692Z,26.40
2022-09-28T06:04:45.774Z,26.30
2022-09-28T06:07:14.706Z,26.40
2022-09-28T06:09:43.641Z,26.40
2022-09-28T06:12:12.559Z,26.40
2022-09-28T06:14:41.471Z,26.40
2022-09-28T06:17:10.494Z,26.40
2022-09-28T06:19:40.128Z,26.40
2022-09-28T06:22:09.121Z,26.50
2022-09-28T06:24:37.993Z,26.50
2022-09-28T06:27:06.897Z,26.50
2022-09-28T06:29:35.792Z,26.50
2022-09-28T06:32:04.660Z,26.50
2022-09-28T06:34:33.536Z,26.50
2022-09-28T06:37:05.493Z,26.50
2022-09-28T06:39:34.330Z,26.50
2022-09-28T06:42:04.483Z,26.50
2022-09-28T06:44:33.432Z,26.50
2022-09-28T06:47:02.445Z,26.60
2022-09-28T06:49:31.419Z,26.60
2022-09-28T06:52:00.283Z,26.60
2022-09-28T06:54:29.182Z,26.60
2022-09-28T06:56:58.099Z,26.60
2022-09-28T06:59:27.048Z,26.60
2022-09-28T07:01:56.387Z,26.60
2022-09-28T07:04:25.297Z,26.60
2022-09-28T07:06:54.932Z,26.60
2022-09-28T07:09:32.446Z,26.50
2022-09-28T07:12:02.518Z,26.40
2022-09-28T07:14:46.995Z,26.40
2022-09-28T07:17:16.595Z,26.30
2022-09-28T07:19:45.724Z,26.30
2022-09-28T07:22:18.883Z,26.20
2022-09-28T07:24:49.939Z,26.20
2022-09-28T07:27:19.166Z,26.20
2022-09-28T07:29:48.033Z,26.10
2022-09-28T07:32:16.931Z,26.10
2022-09-28T07:34:45.908Z,26.10
2022-09-28T07:37:14.985Z,26.10
2022-09-28T07:40:02.135Z,26.10
2022-09-28T07:42:31.589Z,26.10
2022-09-28T07:45:00.783Z,26.10
2022-09-28T07:47:34.616Z,26.20
2022-09-28T07:50:04.136Z,26.20
2022-09-28T07:52:36.251Z,26.20
2022-09-28T07:55:07.179Z,26.20
2022-09-28T07:57:37.270Z,26.20
2022-09-28T08:00:10.131Z,26.20
2022-09-28T08:02:39.479Z,26.10
2022-09-28T08:05:10.478Z,26.10
2022-09-28T08:07:39.491Z,26.10
2022-09-28T08:10:08.678Z,26.00
2022-09-28T08:12:37.563Z,25.90
2022-09-28T08:15:11.678Z,25.80
2022-09-28T08:17:40.919Z,25.80
2022-09-28T08:20:28.602Z,25.80
2022-09-28T08:22:58.016Z,25.70
2022-09-28T08:25:26.998Z,25.70
2022-09-28T08:27:57.529Z,25.60
2022-09-28T08:30:27.478Z,25.60
2022-09-28T08:32:56.994Z,25.50
2022-09-28T08:35:26.898Z,25.40
2022-09-28T08:37:56.156Z,25.40
2022-09-28T08:40:27.129Z,25.30
2022-09-28T08:43:02.728Z,25.30
2022-09-28T08:45:37.583Z,25.30
2022-09-28T08:48:51.795Z,25.20
2022-09-28T08:51:33.206Z,25.20
2022-09-28T08:54:30.320Z,25.10
2022-09-28T08:57:26.090Z,25.10
2022-09-28T09:00:04.192Z,25.10
2022-09-28T09:02:40.350Z,25.10
2022-09-28T09:05:18.241Z,25.20
2022-09-28T09:07:52.893Z,25.10
2022-09-28T09:10:35.347Z,25.20
2022-09-28T09:13:43.603Z,25.10
2022-09-28T09:16:27.136Z,25.20
2022-09-28T09:19:20.212Z,25.10
2022-09-28T11:41:06.959Z,24.60
2022-09-28T11:44:13.427Z,24.60
2022-09-28T11:47:00.762Z,24.50
2022-09-28T11:50:04.692Z,24.50
2022-09-28T11:52:46.195Z,24.50
2022-09-28T11:55:43.073Z,24.50
2022-09-28T11:58:14.411Z,24.50
2022-09-28T12:00:55.832Z,24.50
2022-09-28T12:03:35.339Z,24.50
2022-09-28T12:06:11.320Z,24.50
2022-09-28T12:08:54.731Z,24.50
2022-09-28T12:11:33.617Z,24.50
2022-09-28T12:14:07.190Z,24.50
2022-09-28T12:17:30.119Z,24.50
2022-09-28T12:20:25.799Z,24.50
2022-09-28T12:22:57.486Z,24.50
2022-09-28T12:25:28.794Z,24.60
2022-09-28T12:28:00.046Z,24.60
2022-09-28T12:30:33.958Z,24.60
2022-09-28T12:33:13.486Z,24.70
2022-09-28T12:36:05.981Z,24.70
2022-09-28T12:39:18.095Z,24.70
2022-09-28T12:42:16.216Z,24.70
2022-09-28T12:45:24.787Z,24.60
2022-09-28T12:48:31.940Z,24.60
2022-09-28T12:51:44.405Z,24.60
2022-09-28T12:54:35.548Z,24.60
2022-09-28T12:57:22.574Z,24.50
2022-09-28T13:00:24.484Z,24.50
2022-09-28T13:03:18.037Z,24.50
2022-09-28T13:06:17.676Z,24.50
2022-09-28T13:09:12.139Z,24.50
2022-09-28T13:12:05.381Z,24.60
2022-09-28T13:15:02.355Z,24.70
2022-09-28T13:17:55.928Z,24.80
2022-09-28T13:20:49.639Z,24.90
2022-09-28T13:23:30.349Z,24.90
2022-09-28T13:26:06.383Z,24.90
2022-09-28T13:28:38.494Z,24.90
2022-09-28T13:31:08.688Z,24.90
2022-09-28T13:33:42.195Z,24.80
2022-09-28T13:36:29.416Z,24.70
